Time;durP1;ratioP1;P1;durP2;ratioP2;P2;SDS_P1;SDS_P2;PMS_P1;PMS_P2;Temp;Humidity;BMP_temperature;BMP_pressure;BME280_temperature;BME280_humidity;BME280_pressure;Samples;Min_cycle;Max_cycle;Signal;HPM_P1;HPM_P2
2021/08/11 00:06:16;;;;;;;8.63;6.60;;;;;;;25.61;66.52;100000.84;1106344;23;20271;-70
2021/08/11 00:09:06;;;;;;;8.23;7.00;;;;;;;25.72;66.21;100003.31;1201932;23;21608;-73
2021/08/11 00:56:36;;;;;;;9.15;6.60;;;;;;;25.23;68.27;99993.81;1172653;23;22026;-79
2021/08/11 01:27:32;;;;;;;10.73;7.25;;;;;;;25.29;68.51;99976.81;1213008;23;21676;31
2021/08/11 01:33:18;;;;;;;9.55;7.30;;;;;;;25.57;67.67;99974.22;1173755;23;20194;-72
2021/08/11 01:59:15;;;;;;;10.18;6.80;;;;;;;25.32;68.72;99945.28;1174011;23;21540;-76
2021/08/11 02:09:35;;;;;;;10.82;7.32;;;;;;;25.07;68.69;99940.63;1172636;23;21567;-78
2021/08/11 02:37:50;;;;;;;8.57;7.20;;;;;;;25.15;69.15;99933.81;1105091;23;20270;-67
2021/08/11 03:00:09;;;;;;;11.50;7.80;;;;;;;24.01;73.21;99935.03;1699013;23;20048;-67
2021/08/11 03:05:26;;;;;;;14.70;7.80;;;;;;;23.83;74.72;99939.19;1347065;23;21635;-79
2021/08/11 03:19:57;;;;;;;11.40;8.30;;;;;;;23.72;73.31;99948.81;1104645;23;21690;-79
2021/08/11 03:35:35;;;;;;;11.55;8.30;;;;;;;23.80;73.21;99944.63;1170033;23;21732;-80
2021/08/11 03:56:11;;;;;;;9.68;7.53;;;;;;;23.57;72.55;99971.66;1239377;23;21575;-74
2021/08/11 04:01:08;;;;;;;8.88;7.88;;;;;;;23.48;73.28;99974.19;3482197;41;20436;-72
2021/08/11 04:03:34;;;;;;;8.90;7.97;;;;;;;23.75;73.80;99977.94;3483924;41;20038;-72
2021/08/11 04:21:21;;;;;;;11.60;8.23;;;;;;;24.15;72.35;99991.09;3622850;23;20899;31
2021/08/11 04:31:15;;;;;;;13.05;9.02;;;;;;;24.59;71.18;99995.13;1727354;23;20060;-72
2021/08/11 04:36:24;;;;;;;12.65;9.73;;;;;;;24.48;72.59;99995.22;3582339;23;20111;-69
2021/08/11 04:46:25;;;;;;;14.75;9.38;;;;;;;24.60;71.42;99988.97;3493665;41;20975;-68
2021/08/11 05:16:57;;;;;;;11.45;9.10;;;;;;;25.57;68.76;100013.31;3686152;23;20098;-72
2021/08/11 05:22:18;;;;;;;11.73;9.15;;;;;;;26.01;67.10;100019.72;1582442;23;21442;-67
2021/08/11 05:35:12;;;;;;;8.93;8.02;;;;;;;27.57;61.80;100031.00;1379343;23;20051;-69
2021/08/11 05:40:46;;;;;;;14.80;8.50;;;;;;;27.08;63.32;100034.88;3558488;23;20049;-70
2021/08/11 05:45:41;;;;;;;12.52;8.02;;;;;;;27.37;62.21;100025.13;3557814;23;20535;-74
2021/08/11 05:50:59;;;;;;;9.57;8.07;;;;;;;27.17;62.51;100021.78;3558182;23;20102;-73
2021/08/11 05:55:58;;;;;;;11.82;7.90;;;;;;;27.51;61.98;100026.38;3493942;41;20550;-74
2021/08/11 06:03:23;;;;;;;10.45;7.95;;;;;;;27.56;60.51;100029.34;3495116;41;20837;-72
2021/08/11 06:05:49;;;;;;;9.93;7.70;;;;;;;28.30;58.97;100014.94;3495567;41;20045;-77
2021/08/11 06:08:14;;;;;;;11.60;8.13;;;;;;;28.22;60.02;100013.09;3495705;41;20026;-72
2021/08/11 06:15:38;;;;;;;10.35;7.25;;;;;;;29.10;56.63;100019.69;3484732;41;20140;-71
2021/08/11 06:18:11;;;;;;;10.40;7.68;;;;;;;29.25;55.46;100012.88;3476873;41;20046;-72
2021/08/11 06:20:36;;;;;;;11.35;7.13;;;;;;;29.24;55.24;100013.84;3546210;24;20106;-73
2021/08/11 06:23:09;;;;;;;8.23;7.10;;;;;;;29.21;55.40;100023.84;3494979;41;20038;-72
2021/08/11 06:30:48;;;;;;;9.95;7.70;;;;;;;29.72;53.91;100023.59;3526435;23;20118;-72
2021/08/11 06:33:14;;;;;;;10.57;7.65;;;;;;;29.59;54.12;100023.25;3474444;41;20070;-71
2021/08/11 06:36:11;;;;;;;8.18;7.00;;;;;;;29.31;54.61;100019.28;3492300;23;20017;-72
2021/08/11 06:39:09;;;;;;;11.25;7.55;;;;;;;29.85;52.42;100019.50;3527452;23;20076;-71
2021/08/11 06:41:38;;;;;;;8.70;7.18;;;;;;;29.88;51.62;100018.34;3485237;41;20038;-69
2021/08/11 06:44:04;;;;;;;8.90;6.78;;;;;;;30.52;51.47;100009.56;3485639;41;20042;-72
2021/08/11 06:46:30;;;;;;;10.07;6.50;;;;;;;30.84;50.86;100009.47;3485601;41;20034;-72
2021/08/11 06:49:00;;;;;;;11.13;6.90;;;;;;;30.72;50.23;100006.34;3477170;41;20309;-69
2021/08/11 06:51:25;;;;;;;13.70;7.22;;;;;;;30.34;50.57;100009.78;3485666;41;20041;-75
2021/08/11 06:53:52;;;;;;;13.18;7.20;;;;;;;30.74;50.18;100003.56;3485789;41;20042;-71
2021/08/11 06:56:19;;;;;;;9.48;6.90;;;;;;;30.60;51.10;100012.16;3485933;41;20323;-70
2021/08/11 06:58:44;;;;;;;10.73;7.40;;;;;;;30.49;51.95;100009.88;3485716;41;20042;-69
2021/08/11 07:01:10;;;;;;;10.68;7.30;;;;;;;31.11;50.74;100018.66;3485937;41;20030;-73
2021/08/11 07:03:36;;;;;;;7.95;6.78;;;;;;;30.80;50.80;100008.94;3485956;41;20196;-73
2021/08/11 07:08:31;;;;;;;8.38;6.45;;;;;;;31.24;50.20;100011.00;3484676;41;20046;-73
2021/08/11 07:10:57;;;;;;;7.22;6.18;;;;;;;31.35;48.47;100003.56;3476343;41;20042;-72
2021/08/11 07:13:23;;;;;;;11.85;6.10;;;;;;;31.62;47.73;100010.09;3476367;41;20046;-71
2021/08/11 07:15:53;;;;;;;6.05;5.18;;;;;;;31.81;47.29;100009.63;3476391;41;20026;-74
2021/08/11 07:18:20;;;;;;;8.35;5.88;;;;;;;32.34;46.43;100009.44;3475967;41;20046;-72
2021/08/11 07:20:49;;;;;;;7.90;5.28;;;;;;;31.73;46.27;100012.34;3476139;41;20114;-71
2021/08/11 07:23:14;;;;;;;11.38;6.05;;;;;;;32.55;45.52;100013.16;3476154;41;20035;-73
2021/08/11 07:25:46;;;;;;;8.73;5.70;;;;;;;32.21;45.38;100008.41;3475697;41;20581;-72
2021/08/11 07:28:12;;;;;;;7.03;5.45;;;;;;;32.18;44.51;100012.25;3475133;41;20038;-75
2021/08/11 07:30:45;;;;;;;9.75;6.55;;;;;;;32.36;44.08;100007.44;3475870;41;20082;-72
2021/08/11 07:33:12;;;;;;;12.13;6.22;;;;;;;32.78;42.65;100006.81;3466663;41;20092;-72
2021/08/11 07:35:44;;;;;;;8.02;6.22;;;;;;;32.58;43.08;100003.09;3475749;41;20039;-73
2021/08/11 07:38:17;;;;;;;9.40;6.13;;;;;;;32.65;42.37;100003.16;3476072;41;20034;-72
2021/08/11 07:40:43;;;;;;;9.73;6.10;;;;;;;32.99;42.06;100006.03;3475797;41;20287;-70
2021/08/11 07:43:09;;;;;;;8.63;6.20;;;;;;;32.68;42.64;99998.38;3475218;41;20090;-71
2021/08/11 07:45:35;;;;;;;6.97;6.25;;;;;;;33.50;41.55;100004.13;3475693;41;20045;-74
2021/08/11 07:48:07;;;;;;;7.38;5.93;;;;;;;32.50;42.64;99997.94;3476007;41;20071;-72
2021/08/11 07:50:37;;;;;;;10.15;6.60;;;;;;;33.15;42.26;99997.91;3475818;41;20030;-69
2021/08/11 07:53:11;;;;;;;8.65;6.85;;;;;;;33.61;41.91;100001.00;3475832;41;20375;-73
2021/08/11 07:55:36;;;;;;;11.07;6.00;;;;;;;33.94;39.82;100000.25;3475935;41;20080;-71
2021/08/11 07:58:03;;;;;;;9.73;6.38;;;;;;;34.23;39.56;99995.81;3475627;41;20038;-72
2021/08/11 08:00:30;;;;;;;7.25;6.40;;;;;;;33.35;40.57;99996.28;3475746;41;20039;-72
2021/08/11 08:02:56;;;;;;;8.25;6.35;;;;;;;33.75;40.65;100002.75;3474884;41;20038;-71
2021/08/11 08:05:22;;;;;;;8.13;6.28;;;;;;;34.09;39.85;99995.69;3475317;41;20304;-73
2021/08/11 08:07:49;;;;;;;10.25;6.20;;;;;;;34.26;38.72;99987.47;3475490;41;20040;-74
2021/08/11 08:10:15;;;;;;;8.13;6.40;;;;;;;34.30;38.04;99981.63;3481651;41;20114;-72
2021/08/11 08:12:43;;;;;;;6.35;5.75;;;;;;;34.59;38.26;99970.78;3484507;41;20031;-71
2021/08/11 08:15:13;;;;;;;7.00;6.30;;;;;;;33.93;38.23;99980.13;3483965;41;20049;-73
2021/08/11 08:17:41;;;;;;;9.60;6.40;;;;;;;34.41;38.63;99970.47;3491886;41;20096;-74
2021/08/11 08:20:09;;;;;;;8.25;5.97;;;;;;;34.07;39.37;99973.97;3483077;41;20402;-72
2021/08/11 08:22:35;;;;;;;10.82;6.30;;;;;;;34.79;36.91;99969.03;3483886;41;20029;-73
2021/08/11 08:25:03;;;;;;;11.57;6.30;;;;;;;34.61;37.81;99968.78;3484207;41;20054;-70
2021/08/11 08:27:29;;;;;;;8.73;6.20;;;;;;;35.15;36.87;99965.28;3484506;41;20041;-72
2021/08/11 08:29:57;;;;;;;8.32;6.32;;;;;;;34.86;38.11;99964.56;3484549;41;20035;-71
2021/08/11 08:32:27;;;;;;;11.02;6.35;;;;;;;34.90;37.21;99959.72;3483795;41;20034;-75
2021/08/11 08:34:54;;;;;;;11.40;6.20;;;;;;;34.56;36.62;99954.53;3484003;41;20033;-74
2021/08/11 08:37:30;;;;;;;6.38;5.60;;;;;;;35.05;36.70;99952.44;3484492;41;20041;-73
2021/08/11 08:39:55;;;;;;;8.50;6.10;;;;;;;35.37;36.27;99953.50;3484224;41;20053;-71
2021/08/11 08:42:21;;;;;;;8.20;5.93;;;;;;;33.85;37.42;99940.69;3485164;41;20030;-73
2021/08/11 08:44:49;;;;;;;10.55;6.65;;;;;;;35.70;34.83;99943.72;3485065;41;20037;-72
2021/08/11 08:47:20;;;;;;;7.50;6.25;;;;;;;35.21;35.72;99940.66;3484710;41;20034;-71
2021/08/11 08:49:49;;;;;;;8.32;6.18;;;;;;;35.30;36.18;99940.25;3484837;41;20042;-73
2021/08/11 08:52:20;;;;;;;8.77;6.00;;;;;;;34.76;36.81;99935.09;3492644;41;20054;-71
2021/08/11 08:54:49;;;;;;;7.07;6.28;;;;;;;35.39;36.07;99933.75;3484914;41;20046;-74
2021/08/11 08:57:17;;;;;;;8.82;6.18;;;;;;;35.91;34.81;99929.44;3484823;41;20317;-75
2021/08/11 08:59:44;;;;;;;8.40;6.63;;;;;;;35.57;36.49;99926.06;3484574;41;20038;-74
2021/08/11 09:02:13;;;;;;;6.72;5.70;;;;;;;34.53;36.23;99918.75;3485217;41;20406;-73
2021/08/11 09:04:41;;;;;;;9.48;6.45;;;;;;;35.35;35.38;99921.97;3484806;41;20377;-70
2021/08/11 09:07:19;;;;;;;8.27;6.18;;;;;;;35.22;35.10;99914.00;3483597;41;20042;-72
2021/08/11 09:09:45;;;;;;;8.90;6.60;;;;;;;36.22;33.98;99914.50;3483978;41;20038;-72
2021/08/11 09:12:12;;;;;;;9.00;6.32;;;;;;;35.52;34.74;99915.25;3483535;41;20053;-76
2021/08/11 09:14:41;;;;;;;8.88;6.10;;;;;;;35.80;34.88;99915.00;3475014;41;20058;-73
2021/08/11 09:17:07;;;;;;;7.72;6.15;;;;;;;35.90;33.69;99915.38;3475219;41;20046;-72
2021/08/11 09:19:38;;;;;;;9.35;6.63;;;;;;;36.15;33.20;99908.41;3475174;41;20037;-73
2021/08/11 09:22:09;;;;;;;;;;;;;;;36.28;33.87;99902.25;3475594;41;20030;-72
2021/08/11 09:24:40;;;;;;;7.18;6.28;;;;;;;36.40;32.28;99896.13;3466125;41;19941;-73
2021/08/11 09:27:27;;;;;;;;;;;;;;;36.95;32.74;99891.94;3475329;41;20051;-70
2021/08/11 09:30:12;;;;;;;8.30;5.70;;;;;;;37.23;31.72;99881.72;3475242;41;19985;-71
2021/08/11 09:32:58;;;;;;;8.10;6.70;;;;;;;36.26;32.92;99883.09;3475256;41;20034;-73
2021/08/11 09:35:32;;;;;;;11.25;6.40;;;;;;;36.81;32.76;99879.75;3475195;41;20067;-72
2021/08/11 09:38:07;;;;;;;10.25;6.25;;;;;;;36.95;33.62;99883.97;3474540;41;20041;-73
2021/08/11 09:40:36;;;;;;;8.27;6.20;;;;;;;36.91;33.29;99879.31;3474850;41;20041;-72
2021/08/11 09:43:06;;;;;;;9.05;6.30;;;;;;;36.63;33.07;99871.72;3474450;41;20054;-71
2021/08/11 09:45:56;;;;;;;6.90;5.88;;;;;;;36.11;33.45;99871.97;3474518;41;20046;-72
2021/08/11 09:48:26;;;;;;;9.93;6.32;;;;;;;36.99;31.15;99874.56;3473505;41;20031;-74
2021/08/11 09:51:03;;;;;;;7.87;5.87;;;;;;;37.16;31.76;99867.66;3474551;41;20046;-72
2021/08/11 09:53:30;;;;;;;9.15;6.13;;;;;;;37.78;30.89;99865.88;3465560;41;20039;-71
2021/08/11 09:56:06;;;;;;;7.25;5.85;;;;;;;37.60;30.22;99868.53;3473630;41;20038;-73
2021/08/11 09:58:40;;;;;;;7.82;5.97;;;;;;;38.22;29.64;99862.94;3474438;41;20306;-70
2021/08/11 10:01:13;;;;;;;7.53;6.03;;;;;;;37.59;29.35;99853.63;3474105;41;20034;-71
2021/08/11 10:04:06;;;;;;;8.35;6.53;;;;;;;38.08;29.03;99851.63;3474577;41;20031;-72
2021/08/11 10:06:33;;;;;;;9.05;6.00;;;;;;;37.16;29.73;99851.75;3474044;41;20038;-71
2021/08/11 10:09:23;;;;;;;9.63;5.93;;;;;;;37.56;28.22;99846.09;3474149;41;20027;-72
2021/08/11 10:11:57;;;;;;;8.70;5.95;;;;;;;37.69;29.23;99846.78;3474378;41;20050;-71
2021/08/11 10:14:31;;;;;;;10.60;5.50;;;;;;;37.29;26.15;99841.03;3482296;41;20057;-73
2021/08/11 10:17:01;;;;;;;6.90;5.25;;;;;;;38.59;25.09;99847.72;3473960;41;20403;-72
2021/08/11 10:19:32;;;;;;;6.50;4.95;;;;;;;37.38;23.97;99841.56;3474338;41;20045;-72
2021/08/11 10:22:08;;;;;;;6.18;4.80;;;;;;;37.82;24.66;99835.19;3474196;41;20046;-69
2021/08/11 10:24:36;;;;;;;5.57;4.90;;;;;;;37.86;24.54;99834.53;3473067;41;20038;-72
2021/08/11 10:27:10;;;;;;;8.75;5.15;;;;;;;37.54;23.13;99827.72;3473312;41;20050;-74
2021/08/11 10:29:36;;;;;;;5.80;5.20;;;;;;;37.83;22.87;99831.53;3473446;41;20046;-73
2021/08/11 10:32:10;;;;;;;5.70;4.82;;;;;;;38.52;23.21;99831.84;3473897;41;20051;-73
2021/08/11 10:34:36;;;;;;;7.50;5.18;;;;;;;37.62;23.26;99823.97;3473783;41;20046;-72
2021/08/11 10:37:03;;;;;;;5.68;4.85;;;;;;;37.89;22.72;99817.34;3473279;41;20434;-72
2021/08/11 10:39:30;;;;;;;6.50;4.90;;;;;;;38.40;22.31;99828.34;3473542;41;20054;-72
2021/08/11 10:42:00;;;;;;;5.32;4.53;;;;;;;38.66;20.82;99817.34;3473563;41;20050;-72
2021/08/11 10:44:28;;;;;;;;;;;;;;;38.43;21.26;99819.09;3472908;41;20042;-71
2021/08/11 10:47:02;;;;;;;7.05;5.10;;;;;;;39.18;20.46;99814.84;3472897;41;19944;-75
2021/08/11 10:49:29;;;;;;;5.70;4.60;;;;;;;38.42;21.55;99823.59;3474579;41;20035;-73
2021/08/11 10:52:16;;;;;;;5.93;4.30;;;;;;;39.25;22.16;99807.56;3474882;41;20042;-69
2021/08/11 10:55:01;;;;;;;5.38;4.50;;;;;;;38.99;21.87;99806.13;3475905;41;20041;-72
2021/08/11 10:57:39;;;;;;;7.03;4.10;;;;;;;39.44;21.36;99795.75;3475857;41;20070;-73
2021/08/11 11:00:36;;;;;;;5.55;4.82;;;;;;;38.85;22.20;99800.22;3476038;41;20034;-72
2021/08/11 11:03:47;;;;;;;5.60;4.78;;;;;;;38.69;23.48;99786.78;3466557;41;20039;-72
2021/08/11 11:06:20;;;;;;;6.60;4.90;;;;;;;38.18;23.38;99774.03;3475270;41;20059;-73
2021/08/11 11:08:46;;;;;;;5.28;4.78;;;;;;;39.04;23.35;99774.34;3467540;41;20046;-73
2021/08/11 11:11:32;;;;;;;6.82;5.32;;;;;;;38.23;23.65;99771.56;3476241;41;20027;-73
2021/08/11 11:13:59;;;;;;;6.00;5.10;;;;;;;39.15;22.70;99775.38;3474854;41;20046;-73
2021/08/11 11:17:00;;;;;;;7.70;5.25;;;;;;;38.66;23.62;99774.78;3482169;41;20054;-72
2021/08/11 11:19:26;;;;;;;8.30;5.03;;;;;;;39.22;23.13;99782.22;3485170;41;20053;-71
2021/08/11 11:21:53;;;;;;;5.28;4.78;;;;;;;39.85;22.93;99766.22;3484164;41;20038;-72
2021/08/11 11:24:50;;;;;;;8.00;4.93;;;;;;;38.54;23.39;99767.78;3483398;41;20050;-73
2021/08/11 11:27:38;;;;;;;6.25;5.00;;;;;;;38.77;23.46;99762.50;3484544;41;20133;-71
2021/08/11 11:30:12;;;;;;;6.05;5.20;;;;;;;38.37;23.25;99764.97;3484409;41;20041;-72
2021/08/11 11:32:40;;;;;;;7.53;5.28;;;;;;;38.80;21.94;99759.41;3475222;41;20045;-72
2021/08/11 11:35:27;;;;;;;6.22;5.43;;;;;;;39.46;21.84;99748.38;3484110;41;20501;-73
2021/08/11 11:38:12;;;;;;;4.88;4.38;;;;;;;38.42;23.97;99751.81;3484327;41;20038;-72
2021/08/11 11:40:56;;;;;;;6.00;5.30;;;;;;;38.70;22.33;99757.31;3484563;41;20030;-72
2021/08/11 11:43:30;;;;;;;6.05;4.70;;;;;;;38.98;22.46;99748.66;3484186;41;20094;-73
2021/08/11 11:46:02;;;;;;;5.82;4.95;;;;;;;39.26;22.74;99748.78;3484009;41;20072;-68
2021/08/11 11:48:28;;;;;;;5.18;4.60;;;;;;;39.15;22.27;99756.75;3485069;41;20049;-70
2021/08/11 11:51:01;;;;;;;6.68;4.97;;;;;;;39.39;21.47;99753.00;3485269;41;20228;-73
2021/08/11 11:53:34;;;;;;;6.15;5.00;;;;;;;39.15;22.00;99743.44;3485086;41;20049;-69
2021/08/11 11:56:15;;;;;;;5.32;4.82;;;;;;;38.07;23.11;99742.94;3485103;41;20034;-72
2021/08/11 11:58:50;;;;;;;5.55;4.70;;;;;;;39.34;21.32;99742.28;3485342;41;20044;-72
2021/08/11 12:01:17;;;;;;;5.30;4.80;;;;;;;39.00;21.91;99744.69;3484700;41;20078;-74
2021/08/11 12:03:50;;;;;;;7.30;5.00;;;;;;;39.50;21.78;99744.19;3484244;41;20050;-75
2021/08/11 12:06:36;;;;;;;5.28;4.78;;;;;;;39.16;21.42;99737.09;3484474;41;20420;-71
2021/08/11 12:09:03;;;;;;;6.45;4.93;;;;;;;39.55;21.35;99733.66;3484738;41;20038;-71
2021/08/11 12:11:33;;;;;;;6.45;5.03;;;;;;;39.97;20.99;99735.03;3484843;41;20058;-72
2021/08/11 12:14:03;;;;;;;6.18;4.85;;;;;;;39.61;21.84;99727.41;3485158;41;20071;-73
2021/08/11 12:16:37;;;;;;;6.72;5.03;;;;;;;40.00;22.02;99718.56;3484667;41;20102;-70
2021/08/11 12:19:11;;;;;;;7.85;4.90;;;;;;;39.55;22.21;99720.34;3484540;41;20357;-72
2021/08/11 12:21:37;;;;;;;7.38;5.20;;;;;;;40.34;21.41;99716.72;3484711;41;20034;-75
2021/08/11 12:24:04;;;;;;;9.80;5.00;;;;;;;39.39;21.79;99707.75;3484390;41;20034;-73
2021/08/11 12:26:34;;;;;;;5.75;4.82;;;;;;;38.63;22.57;99711.38;3483666;41;20045;-72
2021/08/11 12:28:59;;;;;;;;;;;;;;;38.74;22.25;99717.78;3484942;41;20042;-75
2021/08/11 12:31:32;;;;;;;6.68;4.90;;;;;;;38.90;21.18;99704.59;3484158;41;19941;-73
2021/08/11 12:34:00;;;;;;;5.53;4.40;;;;;;;39.06;20.84;99715.56;3483518;41;20046;-74
2021/08/11 12:36:35;;;;;;;5.65;4.15;;;;;;;39.73;19.29;99709.50;3483908;41;20044;-74
2021/08/11 12:39:13;;;;;;;8.35;4.90;;;;;;;39.46;20.55;99701.22;3483717;41;20336;-73
2021/08/11 12:41:46;;;;;;;7.25;4.88;;;;;;;39.74;21.20;99698.59;3483542;41;20037;-73
2021/08/11 12:44:19;;;;;;;6.35;4.80;;;;;;;39.89;21.24;99697.28;3483625;41;20046;-74
2021/08/11 12:52:26;;;;;;;7.50;5.80;;;;;;;40.24;22.13;99697.91;3481925;41;20042;-73
2021/08/11 12:55:01;;;;;;;6.55;5.53;;;;;;;38.33;24.46;99710.63;3479276;41;20106;-73
2021/08/11 12:57:47;;;;;;;10.93;5.70;;;;;;;37.61;25.48;99706.34;3474309;41;20104;-73
2021/08/11 13:00:17;;;;;;;7.10;5.82;;;;;;;38.38;25.27;99707.31;3463891;41;20478;-71
2021/08/11 13:02:44;;;;;;;8.40;5.70;;;;;;;38.02;25.27;99709.06;3464021;41;20042;-72
2021/08/11 13:05:19;;;;;;;7.95;6.05;;;;;;;37.77;25.55;99696.97;3464368;41;20054;-72
2021/08/11 13:07:52;;;;;;;9.18;5.80;;;;;;;38.97;24.61;99702.59;3464592;41;20043;-72
2021/08/11 13:10:21;;;;;;;7.43;6.13;;;;;;;38.74;24.06;99697.31;3463231;41;20038;-73
2021/08/11 13:12:47;;;;;;;6.72;6.00;;;;;;;38.13;25.22;99702.16;3463672;41;20046;-73
2021/08/11 13:15:28;;;;;;;6.38;5.78;;;;;;;38.33;24.77;99709.84;3463884;41;20047;-72
2021/08/11 13:17:56;;;;;;;7.95;5.93;;;;;;;38.45;24.86;99700.06;3455693;41;20038;-73
2021/08/11 13:20:31;;;;;;;7.53;5.75;;;;;;;38.77;24.70;99694.16;3455493;41;20037;-73
2021/08/11 13:23:01;;;;;;;10.77;6.00;;;;;;;38.18;25.46;99700.44;3463884;41;20038;-73
2021/08/11 13:25:28;;;;;;;9.90;5.93;;;;;;;38.52;23.69;99696.22;3463623;41;20072;-75
2021/08/11 13:27:57;;;;;;;10.25;5.80;;;;;;;37.98;26.00;99689.28;3455820;41;20104;-73
2021/08/11 13:30:23;;;;;;;6.65;5.88;;;;;;;37.58;25.56;99695.38;3463532;41;20095;-72
2021/08/11 13:32:50;;;;;;;7.38;6.30;;;;;;;38.43;24.74;99696.81;3463655;41;20497;-72
2021/08/11 13:35:18;;;;;;;10.23;6.13;;;;;;;38.37;25.80;99695.06;3463516;41;20098;-75
2021/08/11 13:37:45;;;;;;;8.45;6.00;;;;;;;37.41;26.43;99697.81;3470473;41;20035;-70
2021/08/11 13:40:14;;;;;;;6.60;5.88;;;;;;;37.05;27.48;99695.94;3472894;41;20403;-72
2021/08/11 13:42:42;;;;;;;8.90;5.97;;;;;;;37.83;26.76;99706.69;3473725;41;20443;-72
2021/08/11 13:45:09;;;;;;;7.15;6.10;;;;;;;37.46;26.82;99699.81;3482011;41;20026;-72
2021/08/11 13:47:37;;;;;;;8.00;6.40;;;;;;;37.82;26.55;99699.75;3475245;41;20050;-72
2021/08/11 13:52:39;;;;;;;10.93;6.50;;;;;;;37.29;27.20;99697.72;3492981;41;20049;-72
2021/08/11 13:55:07;;;;;;;7.10;6.38;;;;;;;36.89;27.80;99701.84;3494313;41;20094;-68
2021/08/11 14:00:06;;;;;;;9.23;6.20;;;;;;;36.89;27.17;99704.47;3492453;41;20050;-72
2021/08/11 14:02:42;;;;;;;8.00;6.07;;;;;;;37.17;27.82;99707.44;3493753;41;20041;-71
2021/08/11 14:10:07;;;;;;;9.95;6.38;;;;;;;36.31;28.12;99711.84;3479861;41;20442;-70
2021/08/11 14:29:23;;;;;;;8.52;5.72;;;;;;;37.13;27.08;99705.47;1170780;23;21625;-73
2021/08/11 14:40:03;;;;;;;8.00;6.25;;;;;;;36.38;29.11;99712.63;1169918;23;21739;-76
2021/08/11 14:55:18;;;;;;;7.38;6.25;;;;;;;36.04;28.49;99712.25;1241147;23;20310;-74
2021/08/11 15:13:25;;;;;;;8.30;6.22;;;;;;;35.50;30.88;99710.88;1240457;23;20277;-69
2021/08/11 15:18:20;;;;;;;8.65;6.25;;;;;;;36.03;29.94;99697.41;2752203;23;20050;-72
2021/08/11 15:23:40;;;;;;;9.80;6.85;;;;;;;35.47;31.45;99713.97;1378199;23;20095;-83
2021/08/11 15:31:19;;;;;;;8.25;6.45;;;;;;;35.26;31.17;99708.09;2992423;23;20190;-70
2021/08/11 15:45:23;;;;;;;9.40;6.43;;;;;;;34.96;30.88;99720.97;5006484;23;20127;31
2021/08/11 15:58:57;;;;;;;6.47;5.50;;;;;;;34.93;32.60;99734.56;1818362;23;20171;-69
2021/08/11 16:01:36;;;;;;;6.78;5.45;;;;;;;34.78;32.39;99737.44;3890257;23;20070;-74
2021/08/11 16:17:27;;;;;;;;;;;;;;;33.96;35.06;99755.38;4103274;23;20058;-71
2021/08/11 16:22:47;;;;;;;10.30;5.90;;;;;;;34.10;33.70;99766.81;3590052;23;20359;-68
2021/08/11 16:27:42;;;;;;;7.93;5.32;;;;;;;33.87;34.48;99772.38;2308985;23;20040;-67
2021/08/11 16:30:10;;;;;;;5.75;5.15;;;;;;;34.17;34.29;99775.53;3575328;23;20038;-68
2021/08/11 16:35:27;;;;;;;8.32;5.20;;;;;;;33.90;35.41;99773.81;1241492;23;20207;-69
2021/08/11 16:40:48;;;;;;;8.33;5.27;;;;;;;34.06;35.36;99789.34;1309958;23;20332;-69
2021/08/11 16:51:40;;;;;;;6.93;5.20;;;;;;;33.40;36.15;99803.19;1239318;23;20517;-72
2021/08/11 16:59:37;;;;;;;7.85;5.18;;;;;;;33.03;37.58;99804.34;3656196;23;20057;-74
2021/08/11 17:04:56;;;;;;;8.75;5.80;;;;;;;33.14;37.07;99817.81;1401153;23;20521;-74
2021/08/11 17:10:19;;;;;;;7.25;5.55;;;;;;;33.04;38.22;99822.59;3881377;23;20077;-77
2021/08/11 17:24:45;;;;;;;10.38;5.15;;;;;;;32.28;39.09;99840.84;983583;23;20159;-79
2021/08/11 17:27:18;;;;;;;11.15;5.60;;;;;;;32.20;38.83;99841.78;1169400;24;21844;-74
2021/08/11 17:29:57;;;;;;;7.07;5.00;;;;;;;32.09;39.52;99844.88;1747726;23;20185;-79
2021/08/11 17:38:13;;;;;;;6.65;5.25;;;;;;;31.99;39.60;99857.50;1486443;23;20334;-72
2021/08/11 17:45:37;;;;;;;7.78;5.20;;;;;;;31.73;40.23;99869.47;1552212;23;20206;-75
2021/08/11 17:53:13;;;;;;;7.80;5.20;;;;;;;31.66;40.40;99884.31;1317113;23;20171;-79
2021/08/11 18:19:05;;;;;;;7.30;5.50;;;;;;;30.68;42.58;99922.84;1417098;23;20259;-74
2021/08/11 18:21:58;;;;;;;9.00;5.88;;;;;;;30.59;42.93;99919.44;1413104;23;22064;-79
2021/08/11 18:38:37;;;;;;;8.88;5.90;;;;;;;30.38;44.10;99960.38;1143867;23;20360;-75
2021/08/11 18:41:27;;;;;;;8.35;6.22;;;;;;;29.81;45.94;99963.09;1172007;23;21470;-79
2021/08/11 18:54:38;;;;;;;7.10;5.70;;;;;;;29.65;48.35;100009.50;1274932;23;20263;-79
2021/08/11 19:08:33;;;;;;;6.25;5.35;;;;;;;28.71;51.13;100045.59;1174847;23;20267;31
2021/08/11 19:17:10;;;;;;;7.10;5.82;;;;;;;29.03;50.91;100071.91;1172484;23;20319;-73
2021/08/11 19:22:43;;;;;;;6.60;5.85;;;;;;;28.52;53.67;100081.59;1172112;23;21962;-78
2021/08/11 19:35:14;;;;;;;9.23;5.65;;;;;;;28.65;55.03;100089.88;3750385;23;20937;31
2021/08/11 19:41:06;;;;;;;8.70;5.53;;;;;;;28.66;55.08;100094.94;3865196;23;20252;31
2021/08/11 19:44:03;;;;;;;7.50;5.38;;;;;;;28.04;57.13;100095.16;1449322;24;20264;-69
2021/08/11 20:11:02;;;;;;;11.15;5.50;;;;;;;28.01;58.06;100150.38;2749283;37;21804;31
2021/08/11 20:13:33;;;;;;;9.20;5.37;;;;;;;27.92;58.12;100149.47;2606879;54;20292;31
2021/08/11 20:23:32;;;;;;;12.33;7.27;;;;;;;27.88;59.31;100166.41;2606887;54;20141;31
2021/08/11 20:45:57;;;;;;;13.70;8.77;;;;;;;27.04;68.46;100166.72;2705870;38;20448;31
2021/08/11 20:48:31;;;;;;;11.10;8.90;;;;;;;27.06;68.45;100162.13;2606722;54;20045;31
2021/08/11 21:00:59;;;;;;;11.40;9.00;;;;;;;27.29;67.73;100164.25;2606868;54;20671;31
2021/08/11 21:06:01;;;;;;;15.80;9.20;;;;;;;26.91;69.09;100159.19;2705425;38;20563;31
2021/08/11 21:11:02;;;;;;;12.27;8.33;;;;;;;27.03;68.74;100157.22;2705567;38;20617;31
2021/08/11 21:18:32;;;;;;;12.20;9.30;;;;;;;26.42;71.17;100164.63;2606793;54;20056;31
2021/08/11 21:40:57;;;;;;;9.40;8.10;;;;;;;26.21;70.62;100163.94;2602951;54;20029;31
2021/08/11 21:50:56;;;;;;;8.15;7.40;;;;;;;26.67;68.84;100169.25;2603190;54;20089;31
2021/08/11 21:58:26;;;;;;;13.18;7.80;;;;;;;26.57;67.91;100176.25;2603097;54;20156;31
2021/08/11 22:05:57;;;;;;;11.82;6.72;;;;;;;26.20;67.20;100164.91;2603158;54;20058;31
2021/08/11 22:18:26;;;;;;;8.50;7.05;;;;;;;26.09;66.64;100165.03;2603075;54;20318;31
2021/08/11 22:28:25;;;;;;;7.95;6.00;;;;;;;26.27;65.31;100151.16;2603266;54;20117;31
2021/08/11 22:30:57;;;;;;;6.50;5.90;;;;;;;26.82;64.20;100151.41;2602460;47;20042;31
2021/08/11 23:00:50;;;;;;;8.85;7.00;;;;;;;26.28;66.40;100136.34;2602597;54;20034;31
2021/08/11 23:08:21;;;;;;;9.63;8.63;;;;;;;25.84;68.35;100147.28;2602923;54;20060;31
2021/08/11 23:10:54;;;;;;;9.60;8.60;;;;;;;25.74;68.15;100135.09;2602613;54;20034;31
2021/08/11 23:13:26;;;;;;;13.88;9.18;;;;;;;25.60;68.53;100129.44;2701671;39;20569;31
2021/08/11 23:30:55;;;;;;;;;;;;;;;25.76;67.43;100132.34;2603485;54;20787;31
2021/08/11 23:33:28;;;;;;;11.48;9.13;;;;;;;25.86;66.98;100138.38;2603312;54;19966;31
